createdAt,value
2018-04-13T00:00:37.611Z,12.82
2018-04-13T00:01:37.610Z,12.84
2018-04-13T00:02:37.616Z,12.85
2018-04-13T00:03:37.616Z,12.84
2018-04-13T00:04:37.615Z,12.79
2018-04-13T00:05:37.615Z,12.77
2018-04-13T00:06:37.616Z,12.77
2018-04-13T00:07:37.699Z,12.79
2018-04-13T00:08:37.618Z,12.75
2018-04-13T00:09:37.620Z,12.77
2018-04-13T00:10:37.617Z,12.84
2018-04-13T00:11:37.618Z,12.82
2018-04-13T00:12:37.620Z,12.78
2018-04-13T00:13:37.624Z,12.79
2018-04-13T00:14:37.621Z,12.88
2018-04-13T00:15:37.622Z,12.93
2018-04-13T00:16:37.625Z,12.92
2018-04-13T00:17:37.625Z,12.93
2018-04-13T00:18:37.625Z,12.97
2018-04-13T00:19:37.625Z,12.92
2018-04-13T00:20:37.627Z,12.92
2018-04-13T00:21:37.627Z,12.96
2018-04-13T00:22:37.629Z,12.92
2018-04-13T00:23:37.631Z,12.92
2018-04-13T00:24:37.629Z,12.95
2018-04-13T00:25:37.631Z,12.95
2018-04-13T00:26:37.639Z,12.88
2018-04-13T00:27:37.633Z,12.87
2018-04-13T00:28:37.634Z,12.93
2018-04-13T00:29:37.634Z,12.92
2018-04-13T00:30:37.636Z,12.89
2018-04-13T00:31:37.633Z,12.88
2018-04-13T00:32:37.637Z,12.95
2018-04-13T00:33:37.641Z,12.88
2018-04-13T00:34:37.639Z,12.88
2018-04-13T00:35:37.645Z,12.87
2018-04-13T00:36:37.640Z,12.89
2018-04-13T00:37:37.642Z,12.97
2018-04-13T00:38:37.643Z,12.95
2018-04-13T00:39:37.642Z,12.95
2018-04-13T00:40:37.643Z,12.97
2018-04-13T00:41:37.645Z,13.04
2018-04-13T00:42:37.647Z,12.95
2018-04-13T00:43:37.646Z,12.81
2018-04-13T00:44:37.650Z,12.79
2018-04-13T00:45:37.647Z,12.71
2018-04-13T00:46:37.650Z,12.77
2018-04-13T00:47:37.646Z,12.82
2018-04-13T00:48:37.649Z,12.75
2018-04-13T00:49:37.653Z,12.66
2018-04-13T00:50:37.652Z,12.69
2018-04-13T00:51:37.658Z,12.74
2018-04-13T00:52:37.665Z,12.71
2018-04-13T00:53:37.656Z,12.69
2018-04-13T00:54:37.656Z,12.69
2018-04-13T00:55:37.656Z,12.64
2018-04-13T00:56:37.656Z,12.64
2018-04-13T00:57:37.659Z,12.64
2018-04-13T00:58:37.659Z,12.57
2018-04-13T00:59:37.659Z,12.56
2018-04-13T01:00:37.667Z,12.49
2018-04-13T01:01:37.663Z,12.49
2018-04-13T01:02:37.660Z,12.56
2018-04-13T01:03:37.790Z,12.60
2018-04-13T01:04:37.664Z,12.59
2018-04-13T01:05:37.664Z,12.57
2018-04-13T01:06:37.665Z,12.60
2018-04-13T01:07:37.666Z,12.63
2018-04-13T01:08:37.682Z,12.60
2018-04-13T01:09:37.665Z,12.59
2018-04-13T01:10:37.677Z,12.60
2018-04-13T01:11:37.673Z,12.59
2018-04-13T01:12:37.675Z,12.62
2018-04-13T01:13:37.671Z,12.54
2018-04-13T01:14:37.671Z,12.52
2018-04-13T01:15:37.670Z,12.59
2018-04-13T01:16:37.677Z,12.59
2018-04-13T01:17:37.676Z,12.46
2018-04-13T01:18:37.673Z,12.57
2018-04-13T01:19:37.676Z,12.54
2018-04-13T01:20:37.676Z,12.60
2018-04-13T01:21:37.675Z,12.62
2018-04-13T01:22:37.676Z,12.60
2018-04-13T01:23:37.676Z,12.62
2018-04-13T01:24:37.680Z,12.60
2018-04-13T01:25:37.687Z,12.46
2018-04-13T01:26:37.678Z,12.42
2018-04-13T01:27:37.679Z,12.48
2018-04-13T01:28:37.681Z,12.34
2018-04-13T01:29:37.682Z,12.34
2018-04-13T01:30:37.683Z,12.38
2018-04-13T01:31:37.691Z,12.44
2018-04-13T01:32:37.685Z,12.44
2018-04-13T01:33:37.689Z,12.34
2018-04-13T01:34:37.687Z,12.34
2018-04-13T01:35:37.684Z,12.38
2018-04-13T01:36:37.689Z,12.31
2018-04-13T01:37:37.687Z,12.46
2018-04-13T01:38:37.687Z,12.48
2018-04-13T01:39:37.689Z,12.44
2018-04-13T01:40:37.688Z,12.49
2018-04-13T01:41:37.691Z,12.45
2018-04-13T01:42:37.690Z,12.46
2018-04-13T01:43:37.691Z,12.45
2018-04-13T01:44:37.692Z,12.46
2018-04-13T01:45:37.693Z,12.49
2018-04-13T01:46:37.692Z,12.49
2018-04-13T01:47:37.692Z,12.49
2018-04-13T01:48:37.698Z,12.46
2018-04-13T01:49:37.695Z,12.46
2018-04-13T01:50:37.696Z,12.46
2018-04-13T01:51:37.694Z,12.48
2018-04-13T01:52:37.697Z,12.45
2018-04-13T01:53:37.699Z,12.52
2018-04-13T01:54:37.702Z,12.48
2018-04-13T01:55:37.697Z,12.48
2018-04-13T01:56:37.699Z,12.45
2018-04-13T01:57:37.699Z,12.37
2018-04-13T01:58:37.699Z,12.34
2018-04-13T01:59:37.698Z,12.23
2018-04-13T02:00:37.704Z,12.33
2018-04-13T02:01:37.705Z,12.16
2018-04-13T02:02:37.705Z,12.11
2018-04-13T02:03:37.702Z,12.05
2018-04-13T02:04:37.702Z,12.04
2018-04-13T02:05:37.702Z,11.97
2018-04-13T02:06:37.703Z,11.97
2018-04-13T02:07:37.704Z,11.96
2018-04-13T02:08:37.709Z,11.94
2018-04-13T02:09:37.706Z,11.89
2018-04-13T02:10:37.709Z,11.90
2018-04-13T02:11:37.708Z,11.96
2018-04-13T02:12:37.710Z,12.02
2018-04-13T02:13:37.708Z,11.94
2018-04-13T02:14:37.709Z,11.93
2018-04-13T02:15:37.707Z,11.90
2018-04-13T02:16:37.709Z,12.02
2018-04-13T02:17:37.710Z,11.99
2018-04-13T02:18:37.712Z,11.96
2018-04-13T02:19:37.712Z,12.02
2018-04-13T02:20:37.712Z,12.04
2018-04-13T02:21:37.711Z,11.97
2018-04-13T02:22:37.714Z,11.97
2018-04-13T02:23:37.713Z,11.86
2018-04-13T02:24:37.711Z,11.87
2018-04-13T02:25:37.714Z,11.89
2018-04-13T02:26:37.714Z,11.86
2018-04-13T02:27:37.713Z,11.80
2018-04-13T02:28:37.709Z,11.85
2018-04-13T02:29:37.711Z,11.74
2018-04-13T02:30:37.715Z,11.85
2018-04-13T02:31:37.712Z,11.93
2018-04-13T02:32:37.717Z,11.90
2018-04-13T02:33:37.715Z,11.86
2018-04-13T02:34:37.904Z,11.70
2018-04-13T02:35:37.715Z,11.82
2018-04-13T02:36:37.716Z,11.78
2018-04-13T02:37:37.714Z,11.82
2018-04-13T02:38:37.718Z,11.85
2018-04-13T02:39:37.714Z,11.77
2018-04-13T02:40:37.715Z,11.85
2018-04-13T02:41:37.716Z,11.75
2018-04-13T02:42:37.715Z,11.86
2018-04-13T02:43:37.713Z,11.75
2018-04-13T02:44:37.727Z,11.77
2018-04-13T02:45:37.715Z,11.83
2018-04-13T02:46:37.723Z,11.86
2018-04-13T02:47:37.714Z,11.74
2018-04-13T02:48:37.716Z,11.82
2018-04-13T02:49:37.721Z,11.83
2018-04-13T02:50:37.719Z,11.70
2018-04-13T02:51:37.715Z,11.82
2018-04-13T02:52:37.721Z,11.80
2018-04-13T02:53:37.716Z,11.77
2018-04-13T02:54:37.720Z,11.82
2018-04-13T02:55:37.715Z,11.82
2018-04-13T02:56:37.715Z,11.86
2018-04-13T02:57:37.716Z,11.77
2018-04-13T02:58:37.719Z,11.83
2018-04-13T02:59:37.718Z,11.89
2018-04-13T03:00:37.717Z,11.75
2018-04-13T03:01:37.716Z,11.86
2018-04-13T03:02:37.717Z,11.89
2018-04-13T03:03:37.727Z,11.89
2018-04-13T03:04:37.718Z,11.99
2018-04-13T03:05:37.718Z,12.01
2018-04-13T03:06:37.716Z,12.06
2018-04-13T03:07:37.769Z,11.93
2018-04-13T03:08:37.720Z,12.01
2018-04-13T03:09:37.722Z,12.01
2018-04-13T03:10:37.721Z,12.05
2018-04-13T03:11:37.719Z,11.99
2018-04-13T03:12:37.731Z,11.99
2018-04-13T03:13:37.721Z,11.90
2018-04-13T03:14:37.722Z,11.77
2018-04-13T03:15:37.723Z,11.78
2018-04-13T03:16:37.721Z,11.77
2018-04-13T03:17:37.721Z,11.78
2018-04-13T03:18:37.723Z,11.80
2018-04-13T03:19:37.720Z,11.75
2018-04-13T03:20:37.721Z,11.93
2018-04-13T03:21:37.726Z,11.89
2018-04-13T03:22:37.723Z,11.93
2018-04-13T03:23:37.721Z,12.01
2018-04-13T03:24:37.724Z,11.90
2018-04-13T03:25:37.722Z,11.99
2018-04-13T03:26:37.722Z,12.01
2018-04-13T03:27:37.724Z,11.93
2018-04-13T03:28:37.724Z,12.05
2018-04-13T03:29:37.726Z,11.99
2018-04-13T03:30:37.724Z,12.06
2018-04-13T03:31:37.723Z,11.89
2018-04-13T03:32:37.723Z,11.90
2018-04-13T03:33:37.724Z,11.93
2018-04-13T03:34:37.723Z,11.86
2018-04-13T03:35:37.724Z,11.86
2018-04-13T03:36:37.722Z,11.78
2018-04-13T03:37:37.723Z,11.78
2018-04-13T03:38:37.726Z,11.82
2018-04-13T03:39:37.724Z,11.83
2018-04-13T03:40:37.727Z,11.89
2018-04-13T03:41:37.727Z,11.89
2018-04-13T03:42:37.724Z,11.86
2018-04-13T03:43:37.726Z,11.85
2018-04-13T03:44:37.733Z,11.83
2018-04-13T03:45:37.737Z,11.78
2018-04-13T03:46:37.728Z,11.68
2018-04-13T03:47:37.726Z,11.67
2018-04-13T03:48:37.727Z,11.67
2018-04-13T03:49:37.728Z,11.77
2018-04-13T03:50:37.765Z,11.77
2018-04-13T03:51:37.730Z,11.75
2018-04-13T03:52:37.746Z,11.80
2018-04-13T03:53:37.728Z,11.82
2018-04-13T03:54:37.733Z,11.87
2018-04-13T03:55:37.729Z,11.75
2018-04-13T03:56:37.728Z,11.82
2018-04-13T03:57:37.735Z,11.62
2018-04-13T03:58:37.741Z,11.75
2018-04-13T03:59:37.728Z,11.70
2018-04-13T04:00:37.729Z,11.67
2018-04-13T04:01:37.738Z,11.57
2018-04-13T04:02:37.732Z,11.68
2018-04-13T04:03:37.736Z,11.71
2018-04-13T04:04:37.733Z,11.72
2018-04-13T04:05:37.732Z,11.65
2018-04-13T04:06:37.734Z,11.70
2018-04-13T04:07:37.730Z,11.65
2018-04-13T04:08:37.731Z,11.70
2018-04-13T04:09:37.729Z,11.64
2018-04-13T04:10:37.732Z,11.82
2018-04-13T04:11:37.729Z,11.68
2018-04-13T04:12:37.735Z,11.74
2018-04-13T04:13:37.732Z,11.72
2018-04-13T04:14:37.733Z,11.78
2018-04-13T04:15:37.750Z,11.80
2018-04-13T04:16:37.735Z,11.75
2018-04-13T04:17:37.733Z,11.61
2018-04-13T04:18:37.733Z,11.67
2018-04-13T04:19:37.733Z,11.61
2018-04-13T04:20:37.734Z,11.67
2018-04-13T04:21:37.732Z,11.57
2018-04-13T04:22:37.739Z,11.53
2018-04-13T04:23:37.734Z,11.56
2018-04-13T04:24:37.738Z,11.68
2018-04-13T04:25:37.736Z,11.57
2018-04-13T04:26:37.733Z,11.57
2018-04-13T04:27:37.733Z,11.62
2018-04-13T04:28:37.733Z,11.61
2018-04-13T04:29:37.737Z,11.62
2018-04-13T04:30:37.735Z,11.67
2018-04-13T04:31:37.733Z,11.74
2018-04-13T04:32:37.733Z,11.72
2018-04-13T04:33:37.734Z,11.78
2018-04-13T04:34:37.773Z,11.78
2018-04-13T04:35:37.736Z,11.78
2018-04-13T04:36:37.734Z,11.83
2018-04-13T04:37:37.734Z,11.80
2018-04-13T04:38:37.735Z,11.87
2018-04-13T04:39:37.735Z,11.83
2018-04-13T04:40:37.741Z,11.80
2018-04-13T04:41:37.733Z,11.82
2018-04-13T04:42:37.737Z,11.83
2018-04-13T04:43:37.737Z,11.83
2018-04-13T04:44:37.743Z,11.80
2018-04-13T04:45:37.738Z,11.87
2018-04-13T04:46:37.736Z,11.86
2018-04-13T04:47:37.758Z,11.86
2018-04-13T04:48:37.736Z,11.78
2018-04-13T04:49:37.737Z,11.80
2018-04-13T04:50:37.740Z,11.83
2018-04-13T04:51:37.738Z,11.68
2018-04-13T04:52:37.738Z,11.82
2018-04-13T04:53:37.743Z,11.68
2018-04-13T04:54:37.739Z,11.82
2018-04-13T04:55:37.742Z,11.78
2018-04-13T04:56:37.739Z,11.75
2018-04-13T04:57:37.777Z,11.83
2018-04-13T04:58:37.740Z,11.80
2018-04-13T04:59:37.746Z,11.74
2018-04-13T05:00:37.745Z,11.80
2018-04-13T05:01:37.743Z,11.78
2018-04-13T05:02:37.748Z,11.80
2018-04-13T05:03:37.746Z,11.83
2018-04-13T05:04:37.739Z,11.86
2018-04-13T05:05:37.740Z,11.90
2018-04-13T05:06:37.739Z,11.89
2018-04-13T05:07:37.739Z,11.82
2018-04-13T05:08:37.740Z,11.87
2018-04-13T05:09:37.741Z,11.86
2018-04-13T05:10:37.741Z,11.97
2018-04-13T05:11:37.740Z,11.97
2018-04-13T05:12:37.740Z,12.04
2018-04-13T05:13:37.739Z,11.94
2018-04-13T05:14:37.741Z,12.01
2018-04-13T05:15:37.744Z,12.01
2018-04-13T05:16:37.741Z,12.05
2018-04-13T05:17:37.742Z,12.12
2018-04-13T05:18:37.744Z,12.11
2018-04-13T05:19:37.744Z,12.12
2018-04-13T05:20:37.743Z,12.08
2018-04-13T05:21:37.741Z,12.05
2018-04-13T05:22:37.745Z,12.11
2018-04-13T05:23:37.744Z,12.06
2018-04-13T05:24:37.743Z,12.12
2018-04-13T05:25:37.741Z,12.20
2018-04-13T05:26:37.744Z,12.21
2018-04-13T05:27:37.744Z,12.24
2018-04-13T05:28:37.743Z,12.26
2018-04-13T05:29:37.742Z,12.27
2018-04-13T05:30:37.745Z,12.26
2018-04-13T05:31:37.746Z,12.24
2018-04-13T05:32:37.746Z,12.21
2018-04-13T05:33:37.745Z,12.26
2018-04-13T05:34:37.747Z,12.21
2018-04-13T05:35:37.746Z,12.24
2018-04-13T05:36:37.746Z,12.21
2018-04-13T05:37:37.748Z,12.23
2018-04-13T05:38:37.752Z,12.13
2018-04-13T05:39:37.747Z,12.21
2018-04-13T05:40:37.748Z,12.24
2018-04-13T05:41:37.749Z,12.26
2018-04-13T05:42:37.751Z,12.24
2018-04-13T05:43:37.749Z,12.20
2018-04-13T05:44:37.750Z,12.24
2018-04-13T05:45:37.753Z,12.26
2018-04-13T05:46:37.752Z,12.16
2018-04-13T05:47:37.754Z,12.27
2018-04-13T05:48:37.752Z,12.37
2018-04-13T05:49:37.753Z,12.37
2018-04-13T05:50:37.755Z,12.37
2018-04-13T05:51:37.762Z,12.38
2018-04-13T05:52:37.754Z,12.37
2018-04-13T05:53:37.755Z,12.49
2018-04-13T05:54:37.755Z,12.49
2018-04-13T05:55:37.755Z,12.44
2018-04-13T05:56:37.757Z,12.46
2018-04-13T05:57:37.757Z,12.48
2018-04-13T05:58:37.755Z,12.52
2018-04-13T05:59:37.756Z,12.59
2018-04-13T06:00:37.754Z,12.57
2018-04-13T06:01:37.758Z,12.62
2018-04-13T06:02:37.781Z,12.71
2018-04-13T06:03:37.758Z,12.69
2018-04-13T06:04:37.757Z,12.69
2018-04-13T06:05:37.761Z,12.70
2018-04-13T06:06:37.760Z,12.75
2018-04-13T06:07:37.760Z,12.69
2018-04-13T06:08:37.767Z,12.71
2018-04-13T06:09:37.764Z,12.67
2018-04-13T06:10:37.764Z,12.69
2018-04-13T06:11:37.764Z,12.74
2018-04-13T06:12:37.765Z,12.70
2018-04-13T06:13:37.764Z,12.69
2018-04-13T06:14:37.766Z,12.63
2018-04-13T06:15:37.769Z,12.71
2018-04-13T06:16:37.767Z,12.70
2018-04-13T06:17:37.768Z,12.67
2018-04-13T06:18:37.769Z,12.70
2018-04-13T06:19:37.772Z,12.78
2018-04-13T06:20:37.769Z,12.79
2018-04-13T06:21:37.771Z,12.77
2018-04-13T06:22:37.772Z,12.79
2018-04-13T06:23:37.773Z,12.84
2018-04-13T06:24:37.774Z,12.95
2018-04-13T06:25:37.775Z,12.95
2018-04-13T06:26:37.813Z,12.87
2018-04-13T06:27:37.779Z,12.92
2018-04-13T06:28:37.777Z,12.93
2018-04-13T06:29:37.786Z,12.95
2018-04-13T06:30:37.776Z,12.95
2018-04-13T06:31:37.779Z,12.96
2018-04-13T06:32:37.781Z,13.02
2018-04-13T06:33:37.783Z,13.14
2018-04-13T06:34:37.782Z,13.09
2018-04-13T06:35:37.784Z,13.14
2018-04-13T06:36:37.789Z,13.22
2018-04-13T06:37:37.784Z,13.32
2018-04-13T06:38:37.785Z,13.24
2018-04-13T06:39:37.786Z,13.32
2018-04-13T06:40:37.789Z,13.36
2018-04-13T06:41:37.793Z,13.38
2018-04-13T06:42:37.790Z,13.38
2018-04-13T06:43:37.813Z,13.52
2018-04-13T06:44:37.793Z,13.54
2018-04-13T06:45:37.791Z,13.55
2018-04-13T06:46:37.806Z,13.52
2018-04-13T06:47:37.800Z,13.56
2018-04-13T06:48:37.849Z,13.59
2018-04-13T06:49:37.800Z,13.74
2018-04-13T06:50:37.801Z,13.77
2018-04-13T06:51:37.801Z,13.83
2018-04-13T06:52:37.802Z,13.92
2018-04-13T06:53:37.808Z,14.10
2018-04-13T06:54:37.805Z,14.16
2018-04-13T06:55:37.806Z,14.31
2018-04-13T06:56:37.852Z,14.49
2018-04-13T06:57:37.810Z,14.64
2018-04-13T06:58:37.815Z,14.83
2018-04-13T06:59:37.830Z,15.06
2018-04-13T07:00:37.816Z,15.23
2018-04-13T07:01:37.827Z,15.41
2018-04-13T07:02:37.820Z,15.59
2018-04-13T07:03:37.820Z,15.85
2018-04-13T07:04:37.835Z,16.56
2018-04-13T07:05:37.838Z,17.10
2018-04-13T07:06:37.830Z,17.87
2018-04-13T07:07:37.832Z,18.59
2018-04-13T07:08:37.834Z,19.23
2018-04-13T07:09:37.878Z,19.76
2018-04-13T07:10:37.840Z,20.24
2018-04-13T07:11:37.844Z,20.83
2018-04-13T07:12:37.851Z,21.20
2018-04-13T07:13:37.897Z,21.72
2018-04-13T07:14:37.855Z,22.02
2018-04-13T07:15:37.871Z,22.32
2018-04-13T07:16:37.865Z,22.57
2018-04-13T07:17:37.872Z,22.57
2018-04-13T07:18:37.876Z,22.41
2018-04-13T07:19:37.882Z,22.07
2018-04-13T07:20:37.888Z,22.09
2018-04-13T07:21:37.896Z,21.90
2018-04-13T07:22:37.902Z,21.48
2018-04-13T07:23:37.930Z,21.41
2018-04-13T07:24:37.928Z,21.26
2018-04-13T07:25:37.923Z,20.89
2018-04-13T07:26:37.933Z,20.77
2018-04-13T07:27:37.932Z,20.65
2018-04-13T07:28:37.941Z,20.41
2018-04-13T07:29:37.948Z,20.46
2018-04-13T07:30:37.954Z,20.39
2018-04-13T07:31:37.967Z,20.47
2018-04-13T07:32:37.972Z,20.23
2018-04-13T07:33:37.975Z,20.30
2018-04-13T07:34:37.982Z,20.09
2018-04-13T07:35:37.986Z,19.80
2018-04-13T07:36:37.995Z,19.28
2018-04-13T07:37:38.006Z,18.90
2018-04-13T07:38:38.015Z,18.80
2018-04-13T07:39:38.016Z,18.44
2018-04-13T07:40:38.022Z,18.19
2018-04-13T07:41:38.033Z,17.81
2018-04-13T07:42:38.038Z,17.71
2018-04-13T07:43:38.043Z,17.53
2018-04-13T07:44:38.051Z,17.43
2018-04-13T07:45:38.058Z,17.44
2018-04-13T07:46:38.065Z,17.22
2018-04-13T07:47:38.071Z,17.10
2018-04-13T07:48:38.075Z,16.98
2018-04-13T07:49:38.082Z,16.98
2018-04-13T07:50:38.088Z,16.96
2018-04-13T07:51:38.400Z,16.93
2018-04-13T07:52:38.111Z,16.96
2018-04-13T07:53:38.111Z,16.90
2018-04-13T07:54:38.113Z,16.96
2018-04-13T07:55:38.119Z,16.88
2018-04-13T07:56:38.127Z,16.63
2018-04-13T07:57:38.136Z,16.59
2018-04-13T07:58:40.090Z,16.49
2018-04-13T07:59:38.146Z,16.42
2018-04-13T08:00:38.146Z,16.41
2018-04-13T08:01:38.152Z,16.41
2018-04-13T08:02:38.167Z,16.37
2018-04-13T08:03:38.175Z,16.23
2018-04-13T08:04:38.170Z,16.18
2018-04-13T08:05:38.177Z,16.11
2018-04-13T08:06:38.181Z,16.03
2018-04-13T08:07:38.200Z,16.06
2018-04-13T08:08:38.191Z,16.00
2018-04-13T08:09:38.195Z,15.89
2018-04-13T08:10:38.202Z,15.92
2018-04-13T08:11:38.378Z,15.93
2018-04-13T08:12:38.215Z,16.00
2018-04-13T08:13:38.216Z,15.99
2018-04-13T08:14:38.220Z,15.99
2018-04-13T08:15:38.225Z,16.00
2018-04-13T08:16:38.231Z,15.97
2018-04-13T08:17:38.235Z,16.00
2018-04-13T08:18:38.239Z,15.99
2018-04-13T08:19:38.242Z,16.00
2018-04-13T08:20:38.245Z,15.96
2018-04-13T08:21:38.251Z,15.85
2018-04-13T08:22:38.262Z,15.81
2018-04-13T08:23:38.261Z,15.82
2018-04-13T08:24:38.266Z,15.67
2018-04-13T08:25:38.285Z,15.70
2018-04-13T08:26:38.277Z,15.85
2018-04-13T08:27:38.279Z,15.96
2018-04-13T08:28:38.283Z,16.01
2018-04-13T08:29:38.290Z,16.15
2018-04-13T08:30:38.306Z,16.26
2018-04-13T08:31:38.301Z,16.26
2018-04-13T08:32:38.300Z,16.42
2018-04-13T08:33:38.320Z,16.77
2018-04-13T08:34:38.310Z,16.83
2018-04-13T08:35:38.334Z,17.03
2018-04-13T08:36:38.322Z,17.40
2018-04-13T08:37:38.323Z,17.57
2018-04-13T08:38:38.326Z,17.78
2018-04-13T08:39:38.330Z,17.87
2018-04-13T08:40:38.411Z,18.10
2018-04-13T08:41:38.339Z,18.07
2018-04-13T08:42:38.347Z,17.97
2018-04-13T08:43:38.353Z,17.84
2018-04-13T08:44:38.357Z,17.71
2018-04-13T08:45:38.368Z,17.99
2018-04-13T08:46:38.364Z,18.07
2018-04-13T08:47:38.370Z,18.13
2018-04-13T08:48:38.410Z,18.21
2018-04-13T08:49:38.382Z,18.15
2018-04-13T08:50:38.456Z,18.24
2018-04-13T08:51:38.413Z,18.33
2018-04-13T08:52:38.396Z,18.34
2018-04-13T08:53:38.401Z,18.39
2018-04-13T08:54:38.419Z,18.24
2018-04-13T08:55:38.414Z,18.21
2018-04-13T08:56:38.419Z,17.99
2018-04-13T08:57:38.429Z,17.91
2018-04-13T08:58:38.436Z,17.84
2018-04-13T08:59:38.434Z,17.73
2018-04-13T09:00:38.442Z,17.66
2018-04-13T09:01:38.445Z,17.76
2018-04-13T09:02:38.453Z,17.82
2018-04-13T09:03:38.458Z,17.92
2018-04-13T09:04:38.473Z,17.85
2018-04-13T09:05:38.481Z,17.85
2018-04-13T09:06:38.489Z,17.69
2018-04-13T09:07:38.478Z,17.73
2018-04-13T09:08:38.484Z,17.71
2018-04-13T09:09:38.491Z,17.84
2018-04-13T09:10:38.497Z,17.99
2018-04-13T09:11:38.503Z,17.78
2018-04-13T09:12:38.520Z,17.63
2018-04-13T09:13:38.516Z,17.63
2018-04-13T09:14:38.518Z,17.62
2018-04-13T09:15:38.524Z,17.69
2018-04-13T09:16:38.534Z,17.81
2018-04-13T09:17:38.572Z,17.88
2018-04-13T09:18:38.546Z,18.17
2018-04-13T09:19:38.545Z,18.25
2018-04-13T09:20:38.572Z,18.15
2018-04-13T09:21:38.553Z,18.31
2018-04-13T09:22:38.562Z,18.49
2018-04-13T09:23:38.585Z,18.57
2018-04-13T09:24:38.574Z,18.76
2018-04-13T09:25:38.581Z,18.84
2018-04-13T09:26:38.582Z,18.74
2018-04-13T09:27:38.591Z,18.61
2018-04-13T09:28:38.595Z,18.40
2018-04-13T09:29:38.604Z,18.36
2018-04-13T09:30:38.647Z,18.28
2018-04-13T09:31:38.612Z,18.18
2018-04-13T09:32:38.619Z,17.84
2018-04-13T09:33:38.624Z,17.81
2018-04-13T09:34:38.631Z,17.85
2018-04-13T09:35:38.637Z,17.74
2018-04-13T09:36:38.638Z,17.74
2018-04-13T09:37:38.663Z,17.71
2018-04-13T09:38:38.651Z,17.63
2018-04-13T09:39:38.658Z,17.63
2018-04-13T09:40:38.662Z,17.62
2018-04-13T09:41:38.677Z,17.64
2018-04-13T09:42:38.673Z,17.64
2018-04-13T09:43:38.676Z,17.67
2018-04-13T09:44:38.684Z,17.59
2018-04-13T09:45:38.689Z,17.62
2018-04-13T09:46:38.694Z,17.50
2018-04-13T09:47:38.698Z,17.47
2018-04-13T09:48:38.701Z,17.48
2018-04-13T09:49:38.707Z,17.47
2018-04-13T09:50:38.721Z,17.44
2018-04-13T09:51:38.717Z,17.38
2018-04-13T09:52:38.724Z,17.48
2018-04-13T09:53:38.729Z,17.47
2018-04-13T09:54:38.743Z,17.36
2018-04-13T09:55:38.753Z,17.32
2018-04-13T09:56:38.744Z,17.33
2018-04-13T09:57:38.749Z,17.22
2018-04-13T09:58:38.753Z,17.11
2018-04-13T09:59:38.757Z,17.11
2018-04-13T10:00:38.762Z,17.08
2018-04-13T10:01:38.773Z,17.13
2018-04-13T10:02:38.770Z,17.07
2018-04-13T10:03:38.776Z,16.98
2018-04-13T10:04:38.792Z,17.03
2018-04-13T10:05:38.787Z,16.96
2018-04-13T10:06:38.790Z,16.93
2018-04-13T10:07:38.800Z,16.95
2018-04-13T10:08:38.811Z,16.99
2018-04-13T10:09:38.814Z,16.89
2018-04-13T10:10:38.809Z,16.89
2018-04-13T10:11:38.811Z,16.93
2018-04-13T10:12:38.818Z,16.96
2018-04-13T10:13:38.828Z,16.95
2018-04-13T10:14:38.825Z,16.89
2018-04-13T10:15:38.872Z,16.90
2018-04-13T10:16:38.848Z,16.92
2018-04-13T10:17:38.842Z,16.96
2018-04-13T10:18:38.850Z,16.95
2018-04-13T10:19:38.846Z,16.99
2018-04-13T10:20:38.855Z,17.03
2018-04-13T10:21:38.882Z,17.07
2018-04-13T10:22:38.861Z,17.04
2018-04-13T10:23:38.871Z,17.07
2018-04-13T10:24:38.874Z,17.11
2018-04-13T10:25:38.872Z,17.13
2018-04-13T10:26:38.882Z,17.14
2018-04-13T10:27:38.881Z,17.11
2018-04-13T10:28:38.901Z,17.13
2018-04-13T10:29:38.890Z,17.10
2018-04-13T10:30:38.923Z,17.06
2018-04-13T10:31:38.898Z,17.07
2018-04-13T10:32:38.902Z,17.11
2018-04-13T10:33:38.908Z,17.10
2018-04-13T10:34:38.913Z,17.15
2018-04-13T10:35:38.916Z,17.08
2018-04-13T10:36:38.925Z,17.14
2018-04-13T10:37:38.924Z,17.10
2018-04-13T10:38:38.930Z,17.13
2018-04-13T10:39:38.931Z,17.08
2018-04-13T10:40:38.936Z,17.07
2018-04-13T10:41:38.939Z,16.96
2018-04-13T10:42:38.950Z,16.98
2018-04-13T10:43:38.952Z,16.93
2018-04-13T10:44:38.954Z,16.98
2018-04-13T10:45:38.958Z,16.99
2018-04-13T10:46:38.963Z,16.96
2018-04-13T10:47:38.963Z,17.00
2018-04-13T10:48:38.969Z,16.98
2018-04-13T10:49:38.976Z,16.95
2018-04-13T10:50:38.981Z,16.86
2018-04-13T10:51:38.982Z,16.89
2018-04-13T10:52:38.990Z,16.80
2018-04-13T10:53:38.992Z,16.74
2018-04-13T10:54:38.996Z,16.70
2018-04-13T10:55:39.022Z,16.67
2018-04-13T10:56:39.003Z,16.59
2018-04-13T10:57:39.007Z,16.55
2018-04-13T10:58:39.011Z,16.44
2018-04-13T10:59:39.033Z,16.53
2018-04-13T11:00:39.021Z,16.49
2018-04-13T11:01:39.026Z,16.45
2018-04-13T11:02:39.033Z,16.44
2018-04-13T11:03:39.080Z,16.38
2018-04-13T11:04:39.034Z,16.34
2018-04-13T11:05:39.038Z,16.27
2018-04-13T11:06:39.041Z,16.23
2018-04-13T11:07:39.046Z,16.22
2018-04-13T11:08:39.049Z,16.26
2018-04-13T11:09:39.059Z,16.37
2018-04-13T11:10:39.061Z,16.42
2018-04-13T11:11:39.059Z,16.42
2018-04-13T11:12:39.062Z,16.35
2018-04-13T11:13:39.072Z,16.45
2018-04-13T11:14:39.128Z,16.45
2018-04-13T11:15:39.074Z,16.53
2018-04-13T11:16:39.086Z,16.48
2018-04-13T11:17:39.081Z,16.53
2018-04-13T11:18:39.097Z,16.52
2018-04-13T11:19:39.089Z,16.56
2018-04-13T11:20:39.098Z,16.65
2018-04-13T11:21:39.094Z,16.56
2018-04-13T11:22:39.100Z,16.59
2018-04-13T11:23:39.104Z,16.63
2018-04-13T11:24:39.108Z,16.71
2018-04-13T11:25:39.114Z,16.80
2018-04-13T11:26:39.113Z,16.75
2018-04-13T11:27:39.160Z,16.85
2018-04-13T11:28:39.228Z,16.80
2018-04-13T11:29:39.125Z,16.92
2018-04-13T11:30:39.159Z,16.95
2018-04-13T11:31:39.132Z,16.95
2018-04-13T11:32:39.150Z,17.00
2018-04-13T11:33:39.144Z,17.07
2018-04-13T11:34:39.145Z,17.14
2018-04-13T11:35:39.149Z,17.07
2018-04-13T11:36:39.150Z,17.13
2018-04-13T11:37:39.153Z,17.03
2018-04-13T11:38:39.157Z,17.07
2018-04-13T11:39:39.161Z,17.00
2018-04-13T11:40:39.183Z,16.95
2018-04-13T11:41:39.169Z,16.95
2018-04-13T11:42:39.175Z,16.95
2018-04-13T11:43:39.177Z,16.88
2018-04-13T11:44:39.181Z,16.70
2018-04-13T11:45:39.182Z,16.62
2018-04-13T11:46:39.188Z,16.50
2018-04-13T11:47:39.207Z,16.42
2018-04-13T11:48:39.199Z,16.40
2018-04-13T11:49:39.205Z,16.23
2018-04-13T11:50:39.205Z,16.01
2018-04-13T11:51:39.208Z,15.96
2018-04-13T11:52:39.211Z,16.01
2018-04-13T11:53:39.221Z,15.89
2018-04-13T11:54:39.218Z,15.84
2018-04-13T11:55:39.221Z,16.01
2018-04-13T11:56:39.229Z,16.04
2018-04-13T11:57:39.230Z,16.00
2018-04-13T11:58:39.233Z,16.11
2018-04-13T11:59:39.236Z,16.25
2018-04-13T12:00:39.240Z,16.26
2018-04-13T12:01:39.245Z,16.31
2018-04-13T12:02:39.294Z,16.41
2018-04-13T12:03:39.254Z,16.48
2018-04-13T12:04:39.253Z,16.45
2018-04-13T12:05:39.272Z,16.40
2018-04-13T12:06:39.260Z,16.34
2018-04-13T12:07:39.265Z,16.35
2018-04-13T12:08:39.267Z,16.26
2018-04-13T12:09:39.276Z,16.30
2018-04-13T12:10:39.276Z,16.20
2018-04-13T12:11:39.277Z,16.06
2018-04-13T12:12:39.303Z,16.03
2018-04-13T12:13:39.283Z,16.06
2018-04-13T12:14:39.287Z,15.99
2018-04-13T12:15:39.324Z,15.85
2018-04-13T12:16:39.295Z,15.72
2018-04-13T12:17:39.298Z,15.63
2018-04-13T12:18:39.303Z,15.66
2018-04-13T12:19:39.320Z,15.66
2018-04-13T12:20:39.308Z,15.57
2018-04-13T12:21:39.309Z,15.42
2018-04-13T12:22:39.316Z,15.41
2018-04-13T12:23:39.319Z,15.41
2018-04-13T12:24:39.323Z,15.28
2018-04-13T12:25:39.327Z,15.24
2018-04-13T12:26:39.344Z,15.35
2018-04-13T12:27:39.332Z,15.24
2018-04-13T12:28:39.336Z,15.21
2018-04-13T12:29:39.346Z,15.03
2018-04-13T12:30:39.341Z,15.01
2018-04-13T12:31:39.341Z,14.91
2018-04-13T12:32:39.346Z,14.93
2018-04-13T12:33:39.351Z,14.87
2018-04-13T12:34:39.353Z,15.01
2018-04-13T12:35:39.363Z,14.84
2018-04-13T12:36:39.356Z,14.83
2018-04-13T12:37:39.361Z,14.75
2018-04-13T12:38:39.365Z,14.74
2018-04-13T12:39:39.366Z,14.57
2018-04-13T12:40:39.371Z,14.54
2018-04-13T12:41:39.374Z,14.49
2018-04-13T12:42:39.388Z,14.37
2018-04-13T12:43:39.378Z,14.44
2018-04-13T12:44:39.381Z,14.29
2018-04-13T12:45:39.381Z,14.27
2018-04-13T12:46:39.386Z,14.35
2018-04-13T12:47:39.391Z,14.32
2018-04-13T12:48:39.388Z,14.31
2018-04-13T12:49:39.389Z,14.34
2018-04-13T12:50:39.393Z,14.32
2018-04-13T12:51:39.399Z,14.21
2018-04-13T12:52:39.486Z,14.28